sensor_id;sensor_type;location;lat;lon;timestamp;P1;durP1;ratioP1;P2;durP2;ratioP2
5460;SDS011;2753;49.196;8.286;2023-03-16T00:02:17;18.07;;;10.47;;
5460;SDS011;2753;49.196;8.286;2023-03-16T00:04:43;15.50;;;9.30;;
5460;SDS011;2753;49.196;8.286;2023-03-16T00:07:11;18.07;;;10.63;;
5460;SDS011;2753;49.196;8.286;2023-03-16T00:09:38;22.70;;;9.80;;
5460;SDS011;2753;49.196;8.286;2023-03-16T00:12:05;16.80;;;9.70;;
5460;SDS011;2753;49.196;8.286;2023-03-16T00:14:46;19.13;;;9.60;;
5460;SDS011;2753;49.196;8.286;2023-03-16T00:17:13;13.97;;;8.30;;
5460;SDS011;2753;49.196;8.286;2023-03-16T00:19:44;15.00;;;8.17;;
5460;SDS011;2753;49.196;8.286;2023-03-16T00:22:12;12.63;;;8.23;;
5460;SDS011;2753;49.196;8.286;2023-03-16T00:24:39;19.43;;;9.70;;
5460;SDS011;2753;49.196;8.286;2023-03-16T00:27:07;14.90;;;8.70;;
5460;SDS011;2753;49.196;8.286;2023-03-16T00:29:38;20.13;;;10.90;;
5460;SDS011;2753;49.196;8.286;2023-03-16T00:32:11;11.03;;;8.60;;
5460;SDS011;2753;49.196;8.286;2023-03-16T00:34:41;12.00;;;8.17;;
5460;SDS011;2753;49.196;8.286;2023-03-16T00:37:07;13.63;;;8.80;;
5460;SDS011;2753;49.196;8.286;2023-03-16T00:39:33;12.00;;;8.67;;
5460;SDS011;2753;49.196;8.286;2023-03-16T00:42:00;10.47;;;8.30;;
5460;SDS011;2753;49.196;8.286;2023-03-16T00:44:26;13.53;;;8.43;;
5460;SDS011;2753;49.196;8.286;2023-03-16T00:46:52;15.30;;;8.70;;
5460;SDS011;2753;49.196;8.286;2023-03-16T00:49:17;13.13;;;9.90;;
5460;SDS011;2753;49.196;8.286;2023-03-16T00:51:43;17.60;;;9.97;;
5460;SDS011;2753;49.196;8.286;2023-03-16T00:54:10;15.13;;;10.47;;
5460;SDS011;2753;49.196;8.286;2023-03-16T00:56:39;17.03;;;10.20;;
5460;SDS011;2753;49.196;8.286;2023-03-16T00:59:07;14.07;;;8.90;;
5460;SDS011;2753;49.196;8.286;2023-03-16T01:01:33;16.73;;;8.13;;
5460;SDS011;2753;49.196;8.286;2023-03-16T01:03:59;12.87;;;8.60;;
5460;SDS011;2753;49.196;8.286;2023-03-16T01:06:25;19.40;;;10.20;;
5460;SDS011;2753;49.196;8.286;2023-03-16T01:08:51;16.13;;;9.23;;
5460;SDS011;2753;49.196;8.286;2023-03-16T01:11:18;11.50;;;8.77;;
5460;SDS011;2753;49.196;8.286;2023-03-16T01:13:46;13.57;;;9.17;;
5460;SDS011;2753;49.196;8.286;2023-03-16T01:16:12;15.83;;;9.80;;
5460;SDS011;2753;49.196;8.286;2023-03-16T01:18:39;13.90;;;9.30;;
5460;SDS011;2753;49.196;8.286;2023-03-16T01:21:06;19.83;;;10.00;;
5460;SDS011;2753;49.196;8.286;2023-03-16T01:23:33;17.10;;;10.73;;
5460;SDS011;2753;49.196;8.286;2023-03-16T01:26:00;14.17;;;8.97;;
5460;SDS011;2753;49.196;8.286;2023-03-16T01:28:27;21.03;;;9.20;;
5460;SDS011;2753;49.196;8.286;2023-03-16T01:30:58;18.73;;;9.70;;
5460;SDS011;2753;49.196;8.286;2023-03-16T01:33:26;11.63;;;9.00;;
5460;SDS011;2753;49.196;8.286;2023-03-16T01:35:53;13.10;;;8.53;;
5460;SDS011;2753;49.196;8.286;2023-03-16T01:38:20;15.77;;;10.50;;
5460;SDS011;2753;49.196;8.286;2023-03-16T01:40:47;18.13;;;11.50;;
5460;SDS011;2753;49.196;8.286;2023-03-16T01:43:18;20.03;;;11.23;;
5460;SDS011;2753;49.196;8.286;2023-03-16T01:48:40;17.00;;;10.63;;
5460;SDS011;2753;49.196;8.286;2023-03-16T01:51:24;21.40;;;9.50;;
5460;SDS011;2753;49.196;8.286;2023-03-16T01:56:57;14.50;;;9.20;;
5460;SDS011;2753;49.196;8.286;2023-03-16T01:59:42;14.77;;;10.70;;
5460;SDS011;2753;49.196;8.286;2023-03-16T02:02:16;17.33;;;10.17;;
5460;SDS011;2753;49.196;8.286;2023-03-16T02:04:45;16.93;;;10.70;;
5460;SDS011;2753;49.196;8.286;2023-03-16T02:07:23;14.87;;;9.57;;
5460;SDS011;2753;49.196;8.286;2023-03-16T02:09:52;21.17;;;11.13;;
5460;SDS011;2753;49.196;8.286;2023-03-16T02:12:22;15.47;;;10.20;;
5460;SDS011;2753;49.196;8.286;2023-03-16T02:14:48;16.70;;;10.10;;
5460;SDS011;2753;49.196;8.286;2023-03-16T02:17:16;16.20;;;10.10;;
5460;SDS011;2753;49.196;8.286;2023-03-16T02:22:21;14.17;;;9.77;;
5460;SDS011;2753;49.196;8.286;2023-03-16T02:24:49;23.27;;;11.10;;
5460;SDS011;2753;49.196;8.286;2023-03-16T02:27:27;15.90;;;10.50;;
5460;SDS011;2753;49.196;8.286;2023-03-16T02:30:08;19.40;;;10.67;;
5460;SDS011;2753;49.196;8.286;2023-03-16T02:32:38;15.90;;;10.13;;
5460;SDS011;2753;49.196;8.286;2023-03-16T02:35:05;17.20;;;11.60;;
5460;SDS011;2753;49.196;8.286;2023-03-16T02:37:32;17.30;;;10.83;;
5460;SDS011;2753;49.196;8.286;2023-03-16T02:39:59;19.67;;;10.70;;
5460;SDS011;2753;49.196;8.286;2023-03-16T02:42:40;16.27;;;10.50;;
5460;SDS011;2753;49.196;8.286;2023-03-16T02:45:07;22.07;;;11.47;;
5460;SDS011;2753;49.196;8.286;2023-03-16T02:50:07;14.13;;;9.53;;
5460;SDS011;2753;49.196;8.286;2023-03-16T02:52:35;14.80;;;10.83;;
5460;SDS011;2753;49.196;8.286;2023-03-16T02:55:01;15.10;;;10.70;;
5460;SDS011;2753;49.196;8.286;2023-03-16T02:57:28;17.43;;;9.73;;
5460;SDS011;2753;49.196;8.286;2023-03-16T02:59:55;17.00;;;10.40;;
5460;SDS011;2753;49.196;8.286;2023-03-16T03:02:21;17.30;;;9.70;;
5460;SDS011;2753;49.196;8.286;2023-03-16T03:04:47;17.97;;;10.80;;
5460;SDS011;2753;49.196;8.286;2023-03-16T03:07:13;16.83;;;10.53;;
5460;SDS011;2753;49.196;8.286;2023-03-16T03:09:39;17.33;;;10.80;;
5460;SDS011;2753;49.196;8.286;2023-03-16T03:12:08;15.07;;;9.97;;
5460;SDS011;2753;49.196;8.286;2023-03-16T03:14:35;23.50;;;12.23;;
5460;SDS011;2753;49.196;8.286;2023-03-16T03:17:07;21.40;;;11.83;;
5460;SDS011;2753;49.196;8.286;2023-03-16T03:19:34;19.20;;;11.47;;
5460;SDS011;2753;49.196;8.286;2023-03-16T03:22:01;22.77;;;12.43;;
5460;SDS011;2753;49.196;8.286;2023-03-16T03:24:29;19.90;;;12.37;;
5460;SDS011;2753;49.196;8.286;2023-03-16T03:26:55;14.07;;;10.87;;
5460;SDS011;2753;49.196;8.286;2023-03-16T03:29:21;17.50;;;10.33;;
5460;SDS011;2753;49.196;8.286;2023-03-16T03:31:47;18.97;;;11.50;;
5460;SDS011;2753;49.196;8.286;2023-03-16T03:34:12;20.40;;;12.17;;
5460;SDS011;2753;49.196;8.286;2023-03-16T03:36:38;22.63;;;11.77;;
5460;SDS011;2753;49.196;8.286;2023-03-16T03:39:05;26.73;;;12.80;;
5460;SDS011;2753;49.196;8.286;2023-03-16T03:41:31;18.67;;;11.33;;
5460;SDS011;2753;49.196;8.286;2023-03-16T03:43:58;22.20;;;13.53;;
5460;SDS011;2753;49.196;8.286;2023-03-16T03:46:24;22.73;;;13.30;;
5460;SDS011;2753;49.196;8.286;2023-03-16T03:48:50;21.00;;;13.80;;
5460;SDS011;2753;49.196;8.286;2023-03-16T03:51:16;21.60;;;12.73;;
5460;SDS011;2753;49.196;8.286;2023-03-16T03:53:42;23.23;;;13.70;;
5460;SDS011;2753;49.196;8.286;2023-03-16T03:56:08;23.10;;;14.67;;
5460;SDS011;2753;49.196;8.286;2023-03-16T03:58:34;25.37;;;14.03;;
5460;SDS011;2753;49.196;8.286;2023-03-16T04:00:59;23.00;;;13.93;;
5460;SDS011;2753;49.196;8.286;2023-03-16T04:03:25;23.70;;;15.70;;
5460;SDS011;2753;49.196;8.286;2023-03-16T04:05:51;23.97;;;14.10;;
5460;SDS011;2753;49.196;8.286;2023-03-16T04:08:16;20.80;;;13.67;;
5460;SDS011;2753;49.196;8.286;2023-03-16T04:10:42;24.00;;;15.10;;
5460;SDS011;2753;49.196;8.286;2023-03-16T04:13:08;26.27;;;15.37;;
5460;SDS011;2753;49.196;8.286;2023-03-16T04:15:34;24.90;;;14.40;;
5460;SDS011;2753;49.196;8.286;2023-03-16T04:18:02;21.37;;;14.00;;
5460;SDS011;2753;49.196;8.286;2023-03-16T04:20:28;24.53;;;13.53;;
5460;SDS011;2753;49.196;8.286;2023-03-16T04:22:54;23.10;;;13.13;;
5460;SDS011;2753;49.196;8.286;2023-03-16T04:25:23;16.97;;;12.07;;
5460;SDS011;2753;49.196;8.286;2023-03-16T04:27:50;26.50;;;14.37;;
5460;SDS011;2753;49.196;8.286;2023-03-16T04:30:16;26.30;;;14.73;;
5460;SDS011;2753;49.196;8.286;2023-03-16T04:32:42;22.73;;;14.30;;
5460;SDS011;2753;49.196;8.286;2023-03-16T04:35:08;33.33;;;14.20;;
5460;SDS011;2753;49.196;8.286;2023-03-16T04:37:34;33.97;;;14.90;;
5460;SDS011;2753;49.196;8.286;2023-03-16T04:40:00;24.73;;;14.20;;
5460;SDS011;2753;49.196;8.286;2023-03-16T04:42:33;29.77;;;14.87;;
5460;SDS011;2753;49.196;8.286;2023-03-16T04:45:03;23.40;;;13.27;;
5460;SDS011;2753;49.196;8.286;2023-03-16T04:47:29;26.53;;;15.47;;
5460;SDS011;2753;49.196;8.286;2023-03-16T04:49:54;25.23;;;15.60;;
5460;SDS011;2753;49.196;8.286;2023-03-16T04:52:20;24.80;;;15.90;;
5460;SDS011;2753;49.196;8.286;2023-03-16T04:54:45;24.90;;;14.23;;
5460;SDS011;2753;49.196;8.286;2023-03-16T04:57:11;23.70;;;14.30;;
5460;SDS011;2753;49.196;8.286;2023-03-16T04:59:37;22.57;;;13.77;;
5460;SDS011;2753;49.196;8.286;2023-03-16T05:02:02;24.70;;;14.67;;
5460;SDS011;2753;49.196;8.286;2023-03-16T05:04:28;21.23;;;14.03;;
5460;SDS011;2753;49.196;8.286;2023-03-16T05:06:54;27.60;;;15.13;;
5460;SDS011;2753;49.196;8.286;2023-03-16T05:09:19;26.30;;;15.20;;
5460;SDS011;2753;49.196;8.286;2023-03-16T05:11:45;25.23;;;16.10;;
5460;SDS011;2753;49.196;8.286;2023-03-16T05:14:11;28.83;;;15.70;;
5460;SDS011;2753;49.196;8.286;2023-03-16T05:16:36;23.23;;;14.57;;
5460;SDS011;2753;49.196;8.286;2023-03-16T05:19:02;27.13;;;14.73;;
5460;SDS011;2753;49.196;8.286;2023-03-16T05:21:28;26.40;;;14.70;;
5460;SDS011;2753;49.196;8.286;2023-03-16T05:23:56;25.33;;;15.77;;
5460;SDS011;2753;49.196;8.286;2023-03-16T05:26:22;27.10;;;16.00;;
5460;SDS011;2753;49.196;8.286;2023-03-16T05:28:49;26.10;;;16.00;;
5460;SDS011;2753;49.196;8.286;2023-03-16T05:31:16;30.30;;;15.70;;
5460;SDS011;2753;49.196;8.286;2023-03-16T05:33:42;24.80;;;16.57;;
5460;SDS011;2753;49.196;8.286;2023-03-16T05:36:08;40.60;;;17.40;;
5460;SDS011;2753;49.196;8.286;2023-03-16T05:38:34;33.73;;;16.40;;
5460;SDS011;2753;49.196;8.286;2023-03-16T05:41:00;26.17;;;15.47;;
5460;SDS011;2753;49.196;8.286;2023-03-16T05:43:28;26.03;;;14.67;;
5460;SDS011;2753;49.196;8.286;2023-03-16T05:45:55;31.33;;;17.07;;
5460;SDS011;2753;49.196;8.286;2023-03-16T05:48:21;36.97;;;17.20;;
5460;SDS011;2753;49.196;8.286;2023-03-16T05:50:49;30.80;;;17.20;;
5460;SDS011;2753;49.196;8.286;2023-03-16T05:53:15;32.07;;;18.17;;
5460;SDS011;2753;49.196;8.286;2023-03-16T05:55:42;29.50;;;17.57;;
5460;SDS011;2753;49.196;8.286;2023-03-16T05:58:07;26.63;;;16.40;;
5460;SDS011;2753;49.196;8.286;2023-03-16T06:00:33;31.50;;;17.27;;
5460;SDS011;2753;49.196;8.286;2023-03-16T06:02:58;29.30;;;16.73;;
5460;SDS011;2753;49.196;8.286;2023-03-16T06:05:25;35.33;;;18.13;;
5460;SDS011;2753;49.196;8.286;2023-03-16T06:07:52;28.67;;;16.80;;
5460;SDS011;2753;49.196;8.286;2023-03-16T06:10:18;26.10;;;16.33;;
5460;SDS011;2753;49.196;8.286;2023-03-16T06:12:44;32.50;;;17.10;;
5460;SDS011;2753;49.196;8.286;2023-03-16T06:15:10;27.73;;;16.93;;
5460;SDS011;2753;49.196;8.286;2023-03-16T06:17:37;27.73;;;14.80;;
5460;SDS011;2753;49.196;8.286;2023-03-16T06:20:04;22.70;;;14.40;;
5460;SDS011;2753;49.196;8.286;2023-03-16T06:22:41;25.60;;;14.20;;
5460;SDS011;2753;49.196;8.286;2023-03-16T06:25:08;26.00;;;15.13;;
5460;SDS011;2753;49.196;8.286;2023-03-16T06:27:36;25.97;;;15.97;;
5460;SDS011;2753;49.196;8.286;2023-03-16T06:30:02;24.90;;;14.57;;
5460;SDS011;2753;49.196;8.286;2023-03-16T06:32:30;26.80;;;15.47;;
5460;SDS011;2753;49.196;8.286;2023-03-16T06:34:56;22.53;;;13.30;;
5460;SDS011;2753;49.196;8.286;2023-03-16T06:37:23;33.67;;;15.73;;
5460;SDS011;2753;49.196;8.286;2023-03-16T06:39:49;22.97;;;14.00;;
5460;SDS011;2753;49.196;8.286;2023-03-16T06:42:15;23.30;;;14.87;;
5460;SDS011;2753;49.196;8.286;2023-03-16T06:44:40;24.50;;;14.73;;
5460;SDS011;2753;49.196;8.286;2023-03-16T06:47:06;24.23;;;14.90;;
5460;SDS011;2753;49.196;8.286;2023-03-16T06:49:33;20.73;;;14.30;;
5460;SDS011;2753;49.196;8.286;2023-03-16T06:51:58;27.13;;;15.80;;
5460;SDS011;2753;49.196;8.286;2023-03-16T06:54:25;23.67;;;15.20;;
5460;SDS011;2753;49.196;8.286;2023-03-16T06:56:51;33.20;;;16.53;;
5460;SDS011;2753;49.196;8.286;2023-03-16T06:59:17;24.67;;;16.20;;
5460;SDS011;2753;49.196;8.286;2023-03-16T07:01:42;23.03;;;15.27;;
5460;SDS011;2753;49.196;8.286;2023-03-16T07:04:09;21.10;;;15.27;;
5460;SDS011;2753;49.196;8.286;2023-03-16T07:06:36;24.60;;;16.40;;
5460;SDS011;2753;49.196;8.286;2023-03-16T07:09:02;25.87;;;16.63;;
5460;SDS011;2753;49.196;8.286;2023-03-16T07:11:29;25.20;;;16.47;;
5460;SDS011;2753;49.196;8.286;2023-03-16T07:13:56;23.77;;;16.67;;
5460;SDS011;2753;49.196;8.286;2023-03-16T07:16:22;22.87;;;15.77;;
5460;SDS011;2753;49.196;8.286;2023-03-16T07:18:48;28.53;;;16.90;;
5460;SDS011;2753;49.196;8.286;2023-03-16T07:21:14;30.70;;;17.13;;
5460;SDS011;2753;49.196;8.286;2023-03-16T07:23:40;27.47;;;17.37;;
5460;SDS011;2753;49.196;8.286;2023-03-16T07:26:06;27.23;;;16.27;;
5460;SDS011;2753;49.196;8.286;2023-03-16T07:28:36;25.47;;;15.73;;
5460;SDS011;2753;49.196;8.286;2023-03-16T07:31:02;33.60;;;18.00;;
5460;SDS011;2753;49.196;8.286;2023-03-16T07:33:28;31.00;;;17.63;;
5460;SDS011;2753;49.196;8.286;2023-03-16T07:35:56;37.23;;;19.27;;
5460;SDS011;2753;49.196;8.286;2023-03-16T07:38:21;31.17;;;19.10;;
5460;SDS011;2753;49.196;8.286;2023-03-16T07:44:02;25.77;;;15.77;;
5460;SDS011;2753;49.196;8.286;2023-03-16T07:46:28;27.40;;;16.20;;
5460;SDS011;2753;49.196;8.286;2023-03-16T07:48:53;31.00;;;15.80;;
5460;SDS011;2753;49.196;8.286;2023-03-16T07:51:19;27.20;;;16.63;;
5460;SDS011;2753;49.196;8.286;2023-03-16T07:53:45;26.57;;;15.70;;
5460;SDS011;2753;49.196;8.286;2023-03-16T07:56:10;27.40;;;15.77;;
5460;SDS011;2753;49.196;8.286;2023-03-16T07:58:36;31.43;;;16.90;;
5460;SDS011;2753;49.196;8.286;2023-03-16T08:01:02;33.07;;;18.80;;
5460;SDS011;2753;49.196;8.286;2023-03-16T08:03:28;29.10;;;16.20;;
5460;SDS011;2753;49.196;8.286;2023-03-16T08:05:54;31.27;;;17.40;;
5460;SDS011;2753;49.196;8.286;2023-03-16T08:08:20;29.63;;;16.27;;
5460;SDS011;2753;49.196;8.286;2023-03-16T08:10:50;26.70;;;15.00;;
5460;SDS011;2753;49.196;8.286;2023-03-16T08:13:16;24.83;;;14.83;;
5460;SDS011;2753;49.196;8.286;2023-03-16T08:15:49;19.70;;;12.73;;
5460;SDS011;2753;49.196;8.286;2023-03-16T08:18:26;20.27;;;12.33;;
5460;SDS011;2753;49.196;8.286;2023-03-16T08:20:55;20.77;;;12.30;;
5460;SDS011;2753;49.196;8.286;2023-03-16T08:23:21;19.20;;;13.10;;
5460;SDS011;2753;49.196;8.286;2023-03-16T08:25:52;19.37;;;11.97;;
5460;SDS011;2753;49.196;8.286;2023-03-16T08:28:18;20.43;;;11.60;;
5460;SDS011;2753;49.196;8.286;2023-03-16T08:30:49;14.13;;;9.77;;
5460;SDS011;2753;49.196;8.286;2023-03-16T08:33:17;21.47;;;10.97;;
5460;SDS011;2753;49.196;8.286;2023-03-16T08:35:44;22.20;;;12.03;;
5460;SDS011;2753;49.196;8.286;2023-03-16T08:38:11;158.43;;;22.80;;
5460;SDS011;2753;49.196;8.286;2023-03-16T08:40:39;22.80;;;12.53;;
5460;SDS011;2753;49.196;8.286;2023-03-16T08:43:16;29.30;;;13.00;;
5460;SDS011;2753;49.196;8.286;2023-03-16T08:45:46;28.13;;;14.13;;
5460;SDS011;2753;49.196;8.286;2023-03-16T08:48:12;18.07;;;13.00;;
5460;SDS011;2753;49.196;8.286;2023-03-16T08:50:42;21.03;;;13.37;;
5460;SDS011;2753;49.196;8.286;2023-03-16T08:53:08;20.50;;;13.00;;
5460;SDS011;2753;49.196;8.286;2023-03-16T08:55:36;24.50;;;14.30;;
5460;SDS011;2753;49.196;8.286;2023-03-16T08:58:02;16.30;;;11.70;;
5460;SDS011;2753;49.196;8.286;2023-03-16T09:00:27;16.60;;;9.97;;
5460;SDS011;2753;49.196;8.286;2023-03-16T09:02:53;15.57;;;10.67;;
5460;SDS011;2753;49.196;8.286;2023-03-16T09:05:20;18.33;;;9.63;;
5460;SDS011;2753;49.196;8.286;2023-03-16T09:07:47;22.13;;;11.03;;
5460;SDS011;2753;49.196;8.286;2023-03-16T09:10:13;19.47;;;11.23;;
5460;SDS011;2753;49.196;8.286;2023-03-16T09:12:40;19.10;;;10.60;;
5460;SDS011;2753;49.196;8.286;2023-03-16T09:15:08;14.67;;;10.43;;
5460;SDS011;2753;49.196;8.286;2023-03-16T09:17:36;16.20;;;9.50;;
5460;SDS011;2753;49.196;8.286;2023-03-16T09:20:03;12.70;;;9.70;;
5460;SDS011;2753;49.196;8.286;2023-03-16T09:22:33;10.73;;;8.80;;
5460;SDS011;2753;49.196;8.286;2023-03-16T09:24:59;12.47;;;9.10;;
5460;SDS011;2753;49.196;8.286;2023-03-16T09:27:25;20.10;;;9.60;;
5460;SDS011;2753;49.196;8.286;2023-03-16T09:29:50;24.43;;;9.80;;
5460;SDS011;2753;49.196;8.286;2023-03-16T09:32:19;18.07;;;10.87;;
5460;SDS011;2753;49.196;8.286;2023-03-16T09:34:45;15.13;;;10.73;;
5460;SDS011;2753;49.196;8.286;2023-03-16T09:37:11;12.73;;;9.50;;
5460;SDS011;2753;49.196;8.286;2023-03-16T09:39:37;14.10;;;9.80;;
5460;SDS011;2753;49.196;8.286;2023-03-16T09:42:15;11.07;;;8.40;;
5460;SDS011;2753;49.196;8.286;2023-03-16T09:45:22;13.47;;;9.63;;
5460;SDS011;2753;49.196;8.286;2023-03-16T09:48:09;17.17;;;8.83;;
5460;SDS011;2753;49.196;8.286;2023-03-16T09:50:37;11.53;;;7.80;;
5460;SDS011;2753;49.196;8.286;2023-03-16T09:55:36;12.03;;;7.77;;
5460;SDS011;2753;49.196;8.286;2023-03-16T09:58:04;10.07;;;7.40;;
5460;SDS011;2753;49.196;8.286;2023-03-16T10:01:06;9.20;;;7.47;;
5460;SDS011;2753;49.196;8.286;2023-03-16T10:06:45;10.60;;;5.63;;
5460;SDS011;2753;49.196;8.286;2023-03-16T10:09:27;11.53;;;4.83;;
5460;SDS011;2753;49.196;8.286;2023-03-16T10:12:03;7.17;;;5.60;;
5460;SDS011;2753;49.196;8.286;2023-03-16T10:22:34;8.57;;;5.50;;
5460;SDS011;2753;49.196;8.286;2023-03-16T10:27:44;6.17;;;4.83;;
5460;SDS011;2753;49.196;8.286;2023-03-16T10:32:43;5.23;;;4.23;;
5460;SDS011;2753;49.196;8.286;2023-03-16T10:35:13;9.13;;;4.10;;
5460;SDS011;2753;49.196;8.286;2023-03-16T10:38:00;10.70;;;5.57;;
5460;SDS011;2753;49.196;8.286;2023-03-16T10:40:26;5.73;;;4.47;;
5460;SDS011;2753;49.196;8.286;2023-03-16T10:42:56;6.53;;;4.07;;
5460;SDS011;2753;49.196;8.286;2023-03-16T10:45:29;10.40;;;5.43;;
5460;SDS011;2753;49.196;8.286;2023-03-16T10:48:13;4.93;;;4.53;;
5460;SDS011;2753;49.196;8.286;2023-03-16T10:50:47;7.07;;;4.40;;
5460;SDS011;2753;49.196;8.286;2023-03-16T10:53:28;4.43;;;4.03;;
5460;SDS011;2753;49.196;8.286;2023-03-16T10:55:59;6.43;;;3.80;;
5460;SDS011;2753;49.196;8.286;2023-03-16T10:58:30;6.43;;;4.10;;
5460;SDS011;2753;49.196;8.286;2023-03-16T11:00:57;6.73;;;4.30;;
5460;SDS011;2753;49.196;8.286;2023-03-16T11:03:30;7.83;;;4.80;;
5460;SDS011;2753;49.196;8.286;2023-03-16T11:06:06;6.23;;;4.67;;
5460;SDS011;2753;49.196;8.286;2023-03-16T11:08:41;4.13;;;3.73;;
5460;SDS011;2753;49.196;8.286;2023-03-16T11:11:13;5.43;;;4.53;;
5460;SDS011;2753;49.196;8.286;2023-03-16T11:13:43;5.23;;;4.20;;
5460;SDS011;2753;49.196;8.286;2023-03-16T11:16:24;5.40;;;3.10;;
5460;SDS011;2753;49.196;8.286;2023-03-16T11:18:56;3.73;;;3.40;;
5460;SDS011;2753;49.196;8.286;2023-03-16T11:24:21;3.20;;;2.83;;
5460;SDS011;2753;49.196;8.286;2023-03-16T11:26:48;3.23;;;2.93;;
5460;SDS011;2753;49.196;8.286;2023-03-16T11:29:22;11.87;;;4.07;;
5460;SDS011;2753;49.196;8.286;2023-03-16T11:31:56;7.70;;;3.03;;
5460;SDS011;2753;49.196;8.286;2023-03-16T11:34:29;5.80;;;3.23;;
5460;SDS011;2753;49.196;8.286;2023-03-16T11:42:38;4.33;;;3.00;;
5460;SDS011;2753;49.196;8.286;2023-03-16T12:18:37;1.93;;;1.70;;
5460;SDS011;2753;49.196;8.286;2023-03-16T12:23:26;7.87;;;3.90;;
5460;SDS011;2753;49.196;8.286;2023-03-16T12:25:59;3.30;;;2.53;;
5460;SDS011;2753;49.196;8.286;2023-03-16T12:28:28;3.03;;;2.03;;
5460;SDS011;2753;49.196;8.286;2023-03-16T12:30:57;4.30;;;2.50;;
5460;SDS011;2753;49.196;8.286;2023-03-16T12:44:45;4.50;;;3.80;;
5460;SDS011;2753;49.196;8.286;2023-03-16T12:50:19;4.20;;;3.13;;
5460;SDS011;2753;49.196;8.286;2023-03-16T12:52:50;3.17;;;2.97;;
5460;SDS011;2753;49.196;8.286;2023-03-16T12:58:01;3.97;;;3.60;;
5460;SDS011;2753;49.196;8.286;2023-03-16T13:00:37;3.83;;;2.43;;
5460;SDS011;2753;49.196;8.286;2023-03-16T13:03:05;3.60;;;3.33;;
5460;SDS011;2753;49.196;8.286;2023-03-16T13:05:58;3.20;;;2.90;;
5460;SDS011;2753;49.196;8.286;2023-03-16T13:08:25;4.13;;;2.20;;
5460;SDS011;2753;49.196;8.286;2023-03-16T13:11:03;5.43;;;2.83;;
5460;SDS011;2753;49.196;8.286;2023-03-16T13:13:31;2.37;;;2.20;;
5460;SDS011;2753;49.196;8.286;2023-03-16T13:16:08;3.60;;;2.70;;
5460;SDS011;2753;49.196;8.286;2023-03-16T13:18:47;2.77;;;2.40;;
5460;SDS011;2753;49.196;8.286;2023-03-16T13:21:35;2.77;;;2.50;;
5460;SDS011;2753;49.196;8.286;2023-03-16T13:26:48;7.70;;;2.67;;
5460;SDS011;2753;49.196;8.286;2023-03-16T13:29:23;2.63;;;2.07;;
5460;SDS011;2753;49.196;8.286;2023-03-16T13:31:51;2.40;;;2.20;;
5460;SDS011;2753;49.196;8.286;2023-03-16T13:34:22;5.53;;;2.80;;
5460;SDS011;2753;49.196;8.286;2023-03-16T13:36:54;2.33;;;2.13;;
5460;SDS011;2753;49.196;8.286;2023-03-16T13:39:26;8.23;;;4.47;;
5460;SDS011;2753;49.196;8.286;2023-03-16T13:41:54;2.50;;;2.30;;
5460;SDS011;2753;49.196;8.286;2023-03-16T13:44:20;2.60;;;2.40;;
5460;SDS011;2753;49.196;8.286;2023-03-16T13:46:48;3.70;;;1.73;;
5460;SDS011;2753;49.196;8.286;2023-03-16T13:49:17;5.90;;;2.07;;
5460;SDS011;2753;49.196;8.286;2023-03-16T13:51:43;1.50;;;1.40;;
5460;SDS011;2753;49.196;8.286;2023-03-16T13:54:29;2.07;;;1.90;;
5460;SDS011;2753;49.196;8.286;2023-03-16T13:56:56;2.47;;;1.70;;
5460;SDS011;2753;49.196;8.286;2023-03-16T13:59:24;5.83;;;1.33;;
5460;SDS011;2753;49.196;8.286;2023-03-16T14:01:54;1.17;;;1.07;;
5460;SDS011;2753;49.196;8.286;2023-03-16T14:04:22;3.37;;;1.30;;
5460;SDS011;2753;49.196;8.286;2023-03-16T14:07:00;5.50;;;2.10;;
5460;SDS011;2753;49.196;8.286;2023-03-16T14:09:28;2.23;;;1.63;;
5460;SDS011;2753;49.196;8.286;2023-03-16T14:11:57;4.83;;;1.53;;
5460;SDS011;2753;49.196;8.286;2023-03-16T14:14:25;1.93;;;1.27;;
5460;SDS011;2753;49.196;8.286;2023-03-16T14:17:01;3.07;;;1.40;;
5460;SDS011;2753;49.196;8.286;2023-03-16T14:19:54;2.83;;;1.97;;
5460;SDS011;2753;49.196;8.286;2023-03-16T14:22:33;1.97;;;1.40;;
5460;SDS011;2753;49.196;8.286;2023-03-16T14:25:04;2.83;;;1.80;;
5460;SDS011;2753;49.196;8.286;2023-03-16T14:32:52;1.63;;;1.53;;
5460;SDS011;2753;49.196;8.286;2023-03-16T14:35:44;2.87;;;2.27;;
5460;SDS011;2753;49.196;8.286;2023-03-16T14:41:08;1.33;;;1.23;;
5460;SDS011;2753;49.196;8.286;2023-03-16T14:43:48;2.87;;;1.53;;
5460;SDS011;2753;49.196;8.286;2023-03-16T14:46:25;3.80;;;2.10;;
5460;SDS011;2753;49.196;8.286;2023-03-16T14:52:17;2.53;;;1.73;;
5460;SDS011;2753;49.196;8.286;2023-03-16T14:54:51;3.73;;;1.50;;
5460;SDS011;2753;49.196;8.286;2023-03-16T14:57:19;2.33;;;1.57;;
5460;SDS011;2753;49.196;8.286;2023-03-16T14:59:45;3.87;;;2.57;;
5460;SDS011;2753;49.196;8.286;2023-03-16T15:02:22;4.33;;;1.90;;
5460;SDS011;2753;49.196;8.286;2023-03-16T15:04:51;1.50;;;1.40;;
5460;SDS011;2753;49.196;8.286;2023-03-16T15:09:49;2.90;;;1.97;;
5460;SDS011;2753;49.196;8.286;2023-03-16T15:12:18;2.80;;;1.90;;
5460;SDS011;2753;49.196;8.286;2023-03-16T15:14:46;2.20;;;1.60;;
5460;SDS011;2753;49.196;8.286;2023-03-16T15:17:30;4.70;;;1.93;;
5460;SDS011;2753;49.196;8.286;2023-03-16T15:19:56;1.70;;;1.60;;
5460;SDS011;2753;49.196;8.286;2023-03-16T15:22:30;5.13;;;2.27;;
5460;SDS011;2753;49.196;8.286;2023-03-16T15:24:57;3.67;;;1.97;;
5460;SDS011;2753;49.196;8.286;2023-03-16T15:27:27;3.73;;;2.23;;
5460;SDS011;2753;49.196;8.286;2023-03-16T15:29:58;4.30;;;2.40;;
5460;SDS011;2753;49.196;8.286;2023-03-16T15:32:23;2.10;;;1.90;;
5460;SDS011;2753;49.196;8.286;2023-03-16T15:34:49;9.50;;;3.40;;
5460;SDS011;2753;49.196;8.286;2023-03-16T15:37:15;3.73;;;3.07;;
5460;SDS011;2753;49.196;8.286;2023-03-16T15:39:43;11.20;;;4.30;;
5460;SDS011;2753;49.196;8.286;2023-03-16T15:42:14;5.70;;;3.30;;
5460;SDS011;2753;49.196;8.286;2023-03-16T15:44:42;2.73;;;2.50;;
5460;SDS011;2753;49.196;8.286;2023-03-16T15:47:09;6.60;;;2.70;;
5460;SDS011;2753;49.196;8.286;2023-03-16T15:49:35;4.30;;;3.30;;
5460;SDS011;2753;49.196;8.286;2023-03-16T15:52:02;3.50;;;3.17;;
5460;SDS011;2753;49.196;8.286;2023-03-16T15:54:28;3.30;;;2.23;;
5460;SDS011;2753;49.196;8.286;2023-03-16T15:56:54;2.43;;;2.23;;
5460;SDS011;2753;49.196;8.286;2023-03-16T15:59:21;2.90;;;1.80;;
5460;SDS011;2753;49.196;8.286;2023-03-16T16:01:47;2.20;;;2.10;;
5460;SDS011;2753;49.196;8.286;2023-03-16T16:04:15;4.40;;;2.43;;
5460;SDS011;2753;49.196;8.286;2023-03-16T16:06:47;2.10;;;1.87;;
5460;SDS011;2753;49.196;8.286;2023-03-16T16:09:13;5.97;;;2.70;;
5460;SDS011;2753;49.196;8.286;2023-03-16T16:11:39;2.77;;;2.33;;
5460;SDS011;2753;49.196;8.286;2023-03-16T16:14:07;2.90;;;2.70;;
5460;SDS011;2753;49.196;8.286;2023-03-16T16:16:38;2.27;;;2.10;;
5460;SDS011;2753;49.196;8.286;2023-03-16T16:19:11;6.40;;;2.00;;
5460;SDS011;2753;49.196;8.286;2023-03-16T16:21:37;2.83;;;1.67;;
5460;SDS011;2753;49.196;8.286;2023-03-16T16:24:03;3.70;;;2.40;;
5460;SDS011;2753;49.196;8.286;2023-03-16T16:26:33;3.07;;;2.30;;
5460;SDS011;2753;49.196;8.286;2023-03-16T16:29:16;13.33;;;3.57;;
5460;SDS011;2753;49.196;8.286;2023-03-16T16:31:46;17.53;;;2.23;;
5460;SDS011;2753;49.196;8.286;2023-03-16T16:34:13;2.10;;;1.90;;
5460;SDS011;2753;49.196;8.286;2023-03-16T16:36:41;4.33;;;2.40;;
5460;SDS011;2753;49.196;8.286;2023-03-16T16:39:07;3.70;;;2.33;;
5460;SDS011;2753;49.196;8.286;2023-03-16T16:41:33;7.90;;;1.90;;
5460;SDS011;2753;49.196;8.286;2023-03-16T16:44:00;2.60;;;1.53;;
5460;SDS011;2753;49.196;8.286;2023-03-16T16:46:35;3.60;;;2.13;;
5460;SDS011;2753;49.196;8.286;2023-03-16T16:49:05;5.17;;;1.70;;
5460;SDS011;2753;49.196;8.286;2023-03-16T16:51:37;5.03;;;1.90;;
5460;SDS011;2753;49.196;8.286;2023-03-16T16:54:12;2.03;;;1.67;;
5460;SDS011;2753;49.196;8.286;2023-03-16T16:56:42;4.43;;;1.80;;
5460;SDS011;2753;49.196;8.286;2023-03-16T16:59:16;3.03;;;1.83;;
5460;SDS011;2753;49.196;8.286;2023-03-16T17:01:42;5.03;;;1.77;;
5460;SDS011;2753;49.196;8.286;2023-03-16T17:04:13;6.00;;;2.70;;